sensor_id;sensor_type;location;lat;lon;timestamp;P1;durP1;ratioP1;P2;durP2;ratioP2
30036;SDS011;36325;51.512;-0.382;2022-08-11T00:00:10;4.68;;;2.67;;
30036;SDS011;36325;51.512;-0.382;2022-08-11T00:05:13;10.55;;;3.03;;
30036;SDS011;36325;51.512;-0.382;2022-08-11T00:07:49;4.78;;;2.63;;
30036;SDS011;36325;51.512;-0.382;2022-08-11T00:10:21;6.10;;;2.83;;
30036;SDS011;36325;51.512;-0.382;2022-08-11T00:12:53;6.25;;;2.90;;
30036;SDS011;36325;51.512;-0.382;2022-08-11T00:15:23;7.75;;;2.90;;
30036;SDS011;36325;51.512;-0.382;2022-08-11T00:17:56;5.57;;;3.00;;
30036;SDS011;36325;51.512;-0.382;2022-08-11T00:20:29;7.90;;;2.78;;
30036;SDS011;36325;51.512;-0.382;2022-08-11T00:23:08;7.22;;;2.92;;
30036;SDS011;36325;51.512;-0.382;2022-08-11T00:25:38;6.70;;;4.13;;
30036;SDS011;36325;51.512;-0.382;2022-08-11T00:28:24;6.20;;;2.80;;
30036;SDS011;36325;51.512;-0.382;2022-08-11T00:30:55;5.97;;;3.03;;
30036;SDS011;36325;51.512;-0.382;2022-08-11T00:33:30;6.40;;;3.00;;
30036;SDS011;36325;51.512;-0.382;2022-08-11T00:36:13;6.72;;;3.15;;
30036;SDS011;36325;51.512;-0.382;2022-08-11T00:38:44;11.68;;;3.50;;
30036;SDS011;36325;51.512;-0.382;2022-08-11T00:41:38;7.80;;;3.15;;
30036;SDS011;36325;51.512;-0.382;2022-08-11T00:58:37;10.88;;;3.20;;
30036;SDS011;36325;51.512;-0.382;2022-08-11T01:09:30;6.53;;;3.70;;
30036;SDS011;36325;51.512;-0.382;2022-08-11T01:15:23;8.10;;;3.22;;
30036;SDS011;36325;51.512;-0.382;2022-08-11T01:26:47;12.82;;;3.50;;
30036;SDS011;36325;51.512;-0.382;2022-08-11T01:35:34;7.28;;;3.45;;
30036;SDS011;36325;51.512;-0.382;2022-08-11T01:38:20;4.85;;;3.25;;
30036;SDS011;36325;51.512;-0.382;2022-08-11T01:59:26;6.78;;;3.78;;
30036;SDS011;36325;51.512;-0.382;2022-08-11T02:02:26;5.95;;;3.65;;
30036;SDS011;36325;51.512;-0.382;2022-08-11T02:05:19;6.22;;;3.47;;
30036;SDS011;36325;51.512;-0.382;2022-08-11T02:11:08;6.25;;;4.30;;
30036;SDS011;36325;51.512;-0.382;2022-08-11T02:26:58;7.10;;;3.38;;
30036;SDS011;36325;51.512;-0.382;2022-08-11T02:32:28;6.60;;;3.33;;
30036;SDS011;36325;51.512;-0.382;2022-08-11T02:40:46;4.93;;;3.33;;
30036;SDS011;36325;51.512;-0.382;2022-08-11T02:43:22;8.45;;;3.22;;
30036;SDS011;36325;51.512;-0.382;2022-08-11T02:46:19;8.73;;;3.78;;
30036;SDS011;36325;51.512;-0.382;2022-08-11T02:49:04;10.63;;;3.80;;
30036;SDS011;36325;51.512;-0.382;2022-08-11T02:55:21;13.10;;;3.55;;
30036;SDS011;36325;51.512;-0.382;2022-08-11T02:58:11;6.82;;;3.78;;
30036;SDS011;36325;51.512;-0.382;2022-08-11T03:01:37;10.43;;;3.78;;
30036;SDS011;36325;51.512;-0.382;2022-08-11T03:03:52;9.13;;;3.28;;
30036;SDS011;36325;51.512;-0.382;2022-08-11T03:06:51;4.45;;;3.53;;
30036;SDS011;36325;51.512;-0.382;2022-08-11T03:21:58;6.65;;;3.63;;
30036;SDS011;36325;51.512;-0.382;2022-08-11T03:33:33;8.40;;;3.63;;
30036;SDS011;36325;51.512;-0.382;2022-08-11T03:39:46;10.35;;;4.15;;
30036;SDS011;36325;51.512;-0.382;2022-08-11T03:45:27;5.18;;;3.55;;
30036;SDS011;36325;51.512;-0.382;2022-08-11T03:48:21;9.20;;;3.50;;
30036;SDS011;36325;51.512;-0.382;2022-08-11T03:56:56;11.13;;;3.75;;
30036;SDS011;36325;51.512;-0.382;2022-08-11T04:25:28;9.43;;;4.32;;
30036;SDS011;36325;51.512;-0.382;2022-08-11T04:28:39;9.20;;;4.57;;
30036;SDS011;36325;51.512;-0.382;2022-08-11T04:57:04;11.23;;;5.10;;
30036;SDS011;36325;51.512;-0.382;2022-08-11T05:00:07;8.15;;;4.70;;
30036;SDS011;36325;51.512;-0.382;2022-08-11T05:14:40;9.60;;;5.00;;
30036;SDS011;36325;51.512;-0.382;2022-08-11T05:17:23;11.02;;;5.22;;
30036;SDS011;36325;51.512;-0.382;2022-08-11T05:20:17;9.23;;;4.88;;
30036;SDS011;36325;51.512;-0.382;2022-08-11T05:23:05;10.63;;;5.82;;
30036;SDS011;36325;51.512;-0.382;2022-08-11T05:25:54;9.05;;;5.38;;
30036;SDS011;36325;51.512;-0.382;2022-08-11T05:29:02;12.98;;;4.70;;
30036;SDS011;36325;51.512;-0.382;2022-08-11T05:32:08;10.48;;;4.43;;
30036;SDS011;36325;51.512;-0.382;2022-08-11T05:35:01;8.98;;;5.03;;
30036;SDS011;36325;51.512;-0.382;2022-08-11T05:37:37;12.55;;;5.30;;
30036;SDS011;36325;51.512;-0.382;2022-08-11T05:40:28;9.02;;;5.30;;
30036;SDS011;36325;51.512;-0.382;2022-08-11T05:43:16;11.40;;;5.45;;
30036;SDS011;36325;51.512;-0.382;2022-08-11T05:46:04;13.80;;;6.53;;
30036;SDS011;36325;51.512;-0.382;2022-08-11T05:48:51;13.27;;;6.55;;
30036;SDS011;36325;51.512;-0.382;2022-08-11T05:51:38;12.18;;;6.68;;
30036;SDS011;36325;51.512;-0.382;2022-08-11T05:54:31;11.27;;;6.20;;
30036;SDS011;36325;51.512;-0.382;2022-08-11T05:57:24;11.70;;;6.93;;
30036;SDS011;36325;51.512;-0.382;2022-08-11T06:00:07;10.38;;;6.80;;
30036;SDS011;36325;51.512;-0.382;2022-08-11T06:02:43;17.33;;;8.95;;
30036;SDS011;36325;51.512;-0.382;2022-08-11T06:05:14;11.90;;;7.95;;
30036;SDS011;36325;51.512;-0.382;2022-08-11T06:07:43;18.10;;;9.95;;
30036;SDS011;36325;51.512;-0.382;2022-08-11T06:10:12;15.20;;;9.40;;
30036;SDS011;36325;51.512;-0.382;2022-08-11T06:12:40;19.00;;;10.07;;
30036;SDS011;36325;51.512;-0.382;2022-08-11T06:15:10;15.07;;;8.80;;
30036;SDS011;36325;51.512;-0.382;2022-08-11T06:17:43;12.25;;;9.15;;
30036;SDS011;36325;51.512;-0.382;2022-08-11T06:20:14;16.13;;;9.43;;
30036;SDS011;36325;51.512;-0.382;2022-08-11T06:22:44;21.92;;;10.52;;
30036;SDS011;36325;51.512;-0.382;2022-08-11T06:25:33;14.10;;;10.50;;
30036;SDS011;36325;51.512;-0.382;2022-08-11T06:28:03;15.23;;;10.48;;
30036;SDS011;36325;51.512;-0.382;2022-08-11T06:30:33;17.65;;;11.82;;
30036;SDS011;36325;51.512;-0.382;2022-08-11T06:33:09;17.52;;;12.05;;
30036;SDS011;36325;51.512;-0.382;2022-08-11T06:38:27;15.77;;;10.85;;
30036;SDS011;36325;51.512;-0.382;2022-08-11T06:44:04;17.75;;;13.32;;
30036;SDS011;36325;51.512;-0.382;2022-08-11T06:46:47;17.90;;;11.98;;
30036;SDS011;36325;51.512;-0.382;2022-08-11T06:49:17;18.13;;;11.52;;
30036;SDS011;36325;51.512;-0.382;2022-08-11T06:52:08;20.80;;;12.75;;
30036;SDS011;36325;51.512;-0.382;2022-08-11T06:54:58;19.98;;;12.05;;
30036;SDS011;36325;51.512;-0.382;2022-08-11T06:57:36;18.83;;;11.38;;
30036;SDS011;36325;51.512;-0.382;2022-08-11T07:00:27;16.65;;;11.45;;
30036;SDS011;36325;51.512;-0.382;2022-08-11T07:03:00;21.35;;;11.43;;
30036;SDS011;36325;51.512;-0.382;2022-08-11T07:14:56;17.67;;;10.60;;
30036;SDS011;36325;51.512;-0.382;2022-08-11T07:17:48;20.02;;;11.55;;
30036;SDS011;36325;51.512;-0.382;2022-08-11T07:20:38;20.13;;;12.48;;
30036;SDS011;36325;51.512;-0.382;2022-08-11T07:23:33;18.40;;;11.68;;
30036;SDS011;36325;51.512;-0.382;2022-08-11T07:26:23;19.45;;;11.48;;
30036;SDS011;36325;51.512;-0.382;2022-08-11T07:29:11;20.33;;;12.27;;
30036;SDS011;36325;51.512;-0.382;2022-08-11T07:31:45;17.67;;;11.25;;
30036;SDS011;36325;51.512;-0.382;2022-08-11T07:34:18;18.30;;;11.07;;
30036;SDS011;36325;51.512;-0.382;2022-08-11T07:36:59;18.75;;;11.05;;
30036;SDS011;36325;51.512;-0.382;2022-08-11T07:39:34;24.45;;;10.75;;
30036;SDS011;36325;51.512;-0.382;2022-08-11T07:42:04;22.65;;;11.60;;
30036;SDS011;36325;51.512;-0.382;2022-08-11T07:44:33;20.38;;;11.90;;
30036;SDS011;36325;51.512;-0.382;2022-08-11T07:47:21;26.83;;;11.35;;
30036;SDS011;36325;51.512;-0.382;2022-08-11T07:50:08;13.38;;;9.88;;
30036;SDS011;36325;51.512;-0.382;2022-08-11T07:52:55;25.33;;;10.98;;
30036;SDS011;36325;51.512;-0.382;2022-08-11T07:55:26;19.35;;;10.32;;
30036;SDS011;36325;51.512;-0.382;2022-08-11T07:58:14;17.90;;;10.45;;
30036;SDS011;36325;51.512;-0.382;2022-08-11T08:01:11;17.35;;;9.48;;
30036;SDS011;36325;51.512;-0.382;2022-08-11T08:04:03;17.52;;;9.70;;
30036;SDS011;36325;51.512;-0.382;2022-08-11T08:06:51;14.93;;;8.20;;
30036;SDS011;36325;51.512;-0.382;2022-08-11T08:09:37;18.10;;;8.65;;
30036;SDS011;36325;51.512;-0.382;2022-08-11T08:12:24;16.77;;;8.70;;
30036;SDS011;36325;51.512;-0.382;2022-08-11T08:15:11;16.20;;;8.30;;
30036;SDS011;36325;51.512;-0.382;2022-08-11T08:18:00;15.25;;;8.80;;
30036;SDS011;36325;51.512;-0.382;2022-08-11T08:20:36;13.50;;;7.28;;
30036;SDS011;36325;51.512;-0.382;2022-08-11T08:23:18;11.68;;;6.53;;
30036;SDS011;36325;51.512;-0.382;2022-08-11T08:26:02;14.60;;;6.93;;
30036;SDS011;36325;51.512;-0.382;2022-08-11T08:28:52;15.50;;;6.82;;
30036;SDS011;36325;51.512;-0.382;2022-08-11T08:31:21;13.98;;;7.47;;
30036;SDS011;36325;51.512;-0.382;2022-08-11T08:33:48;11.23;;;5.60;;
30036;SDS011;36325;51.512;-0.382;2022-08-11T08:36:17;14.30;;;6.35;;
30036;SDS011;36325;51.512;-0.382;2022-08-11T08:38:52;6.60;;;4.90;;
30036;SDS011;36325;51.512;-0.382;2022-08-11T08:41:23;10.60;;;5.72;;
30036;SDS011;36325;51.512;-0.382;2022-08-11T08:43:57;9.00;;;5.63;;
30036;SDS011;36325;51.512;-0.382;2022-08-11T08:46:49;10.43;;;4.97;;
30036;SDS011;36325;51.512;-0.382;2022-08-11T08:49:33;12.18;;;5.03;;
30036;SDS011;36325;51.512;-0.382;2022-08-11T08:52:06;8.68;;;4.85;;
30036;SDS011;36325;51.512;-0.382;2022-08-11T08:54:47;8.67;;;4.90;;
30036;SDS011;36325;51.512;-0.382;2022-08-11T08:57:21;11.10;;;4.35;;
30036;SDS011;36325;51.512;-0.382;2022-08-11T08:59:49;9.23;;;5.00;;
30036;SDS011;36325;51.512;-0.382;2022-08-11T09:02:18;10.70;;;5.50;;
30036;SDS011;36325;51.512;-0.382;2022-08-11T09:04:59;9.48;;;4.68;;
30036;SDS011;36325;51.512;-0.382;2022-08-11T09:07:27;11.60;;;4.10;;
30036;SDS011;36325;51.512;-0.382;2022-08-11T09:10:01;7.53;;;4.57;;
30036;SDS011;36325;51.512;-0.382;2022-08-11T09:12:30;10.38;;;5.00;;
30036;SDS011;36325;51.512;-0.382;2022-08-11T09:15:07;15.05;;;4.10;;
30036;SDS011;36325;51.512;-0.382;2022-08-11T09:17:43;9.88;;;3.22;;
30036;SDS011;36325;51.512;-0.382;2022-08-11T09:20:19;12.30;;;3.78;;
30036;SDS011;36325;51.512;-0.382;2022-08-11T09:22:50;10.93;;;3.63;;
30036;SDS011;36325;51.512;-0.382;2022-08-11T09:26:00;10.65;;;2.83;;
30036;SDS011;36325;51.512;-0.382;2022-08-11T09:28:47;9.27;;;3.85;;
30036;SDS011;36325;51.512;-0.382;2022-08-11T09:31:15;7.07;;;2.78;;
30036;SDS011;36325;51.512;-0.382;2022-08-11T09:33:43;5.13;;;2.90;;
30036;SDS011;36325;51.512;-0.382;2022-08-11T09:36:11;13.05;;;3.53;;
30036;SDS011;36325;51.512;-0.382;2022-08-11T09:38:58;6.07;;;2.92;;
30036;SDS011;36325;51.512;-0.382;2022-08-11T09:41:47;9.60;;;3.35;;
30036;SDS011;36325;51.512;-0.382;2022-08-11T09:44:21;4.53;;;2.30;;
30036;SDS011;36325;51.512;-0.382;2022-08-11T09:47:08;4.55;;;3.22;;
30036;SDS011;36325;51.512;-0.382;2022-08-11T09:49:42;4.47;;;2.90;;
30036;SDS011;36325;51.512;-0.382;2022-08-11T09:52:11;8.52;;;3.60;;
30036;SDS011;36325;51.512;-0.382;2022-08-11T09:54:40;4.32;;;3.15;;
30036;SDS011;36325;51.512;-0.382;2022-08-11T09:57:08;8.35;;;3.28;;
30036;SDS011;36325;51.512;-0.382;2022-08-11T09:59:54;7.53;;;2.80;;
30036;SDS011;36325;51.512;-0.382;2022-08-11T10:02:36;10.25;;;3.30;;
30036;SDS011;36325;51.512;-0.382;2022-08-11T10:05:16;9.45;;;2.92;;
30036;SDS011;36325;51.512;-0.382;2022-08-11T10:08:03;11.88;;;3.05;;
30036;SDS011;36325;51.512;-0.382;2022-08-11T10:10:36;8.20;;;2.83;;
30036;SDS011;36325;51.512;-0.382;2022-08-11T10:13:16;8.45;;;2.95;;
30036;SDS011;36325;51.512;-0.382;2022-08-11T10:16:09;10.20;;;2.80;;
30036;SDS011;36325;51.512;-0.382;2022-08-11T10:18:40;7.65;;;2.88;;
30036;SDS011;36325;51.512;-0.382;2022-08-11T10:24:07;8.10;;;2.50;;
30036;SDS011;36325;51.512;-0.382;2022-08-11T10:26:54;4.07;;;2.70;;
30036;SDS011;36325;51.512;-0.382;2022-08-11T10:29:35;7.35;;;2.60;;
30036;SDS011;36325;51.512;-0.382;2022-08-11T10:32:24;3.00;;;2.15;;
30036;SDS011;36325;51.512;-0.382;2022-08-11T10:35:25;6.93;;;2.60;;
30036;SDS011;36325;51.512;-0.382;2022-08-11T10:37:56;8.65;;;2.78;;
30036;SDS011;36325;51.512;-0.382;2022-08-11T10:40:34;7.53;;;2.40;;
30036;SDS011;36325;51.512;-0.382;2022-08-11T10:43:04;5.53;;;2.70;;
30036;SDS011;36325;51.512;-0.382;2022-08-11T10:45:41;4.35;;;2.50;;
30036;SDS011;36325;51.512;-0.382;2022-08-11T10:48:31;4.55;;;2.40;;
30036;SDS011;36325;51.512;-0.382;2022-08-11T10:51:05;7.68;;;2.20;;
30036;SDS011;36325;51.512;-0.382;2022-08-11T10:53:49;7.10;;;2.25;;
30036;SDS011;36325;51.512;-0.382;2022-08-11T10:56:38;8.68;;;2.65;;
30036;SDS011;36325;51.512;-0.382;2022-08-11T10:59:25;11.30;;;2.47;;
30036;SDS011;36325;51.512;-0.382;2022-08-11T11:01:55;3.28;;;2.30;;
30036;SDS011;36325;51.512;-0.382;2022-08-11T11:04:29;7.78;;;2.30;;
30036;SDS011;36325;51.512;-0.382;2022-08-11T11:07:17;4.85;;;2.45;;
30036;SDS011;36325;51.512;-0.382;2022-08-11T11:09:51;4.22;;;2.20;;
30036;SDS011;36325;51.512;-0.382;2022-08-11T11:12:23;4.78;;;2.35;;
30036;SDS011;36325;51.512;-0.382;2022-08-11T11:15:15;9.07;;;2.45;;
30036;SDS011;36325;51.512;-0.382;2022-08-11T11:21:06;5.13;;;2.92;;
30036;SDS011;36325;51.512;-0.382;2022-08-11T11:23:49;4.15;;;2.33;;
30036;SDS011;36325;51.512;-0.382;2022-08-11T11:37:52;9.68;;;3.17;;
30036;SDS011;36325;51.512;-0.382;2022-08-11T11:40:29;7.35;;;2.55;;
30036;SDS011;36325;51.512;-0.382;2022-08-11T11:42:58;11.00;;;2.75;;
30036;SDS011;36325;51.512;-0.382;2022-08-11T11:45:26;7.50;;;2.40;;
30036;SDS011;36325;51.512;-0.382;2022-08-11T11:47:55;4.65;;;2.65;;
30036;SDS011;36325;51.512;-0.382;2022-08-11T11:50:27;6.10;;;2.58;;
30036;SDS011;36325;51.512;-0.382;2022-08-11T11:52:59;8.20;;;2.47;;
30036;SDS011;36325;51.512;-0.382;2022-08-11T11:57:56;4.68;;;2.45;;
30036;SDS011;36325;51.512;-0.382;2022-08-11T12:00:47;22.15;;;3.05;;
30036;SDS011;36325;51.512;-0.382;2022-08-11T12:03:35;3.28;;;1.95;;
30036;SDS011;36325;51.512;-0.382;2022-08-11T12:06:05;6.25;;;2.72;;
30036;SDS011;36325;51.512;-0.382;2022-08-11T12:08:35;3.22;;;2.10;;
30036;SDS011;36325;51.512;-0.382;2022-08-11T12:11:04;9.75;;;2.50;;
30036;SDS011;36325;51.512;-0.382;2022-08-11T12:13:55;3.65;;;2.20;;
30036;SDS011;36325;51.512;-0.382;2022-08-11T12:16:26;3.40;;;2.30;;
30036;SDS011;36325;51.512;-0.382;2022-08-11T12:19:00;3.17;;;2.38;;
30036;SDS011;36325;51.512;-0.382;2022-08-11T12:21:40;5.78;;;2.80;;
30036;SDS011;36325;51.512;-0.382;2022-08-11T12:24:27;4.63;;;2.95;;
30036;SDS011;36325;51.512;-0.382;2022-08-11T12:27:14;5.20;;;2.58;;
30036;SDS011;36325;51.512;-0.382;2022-08-11T12:29:50;8.38;;;3.00;;
30036;SDS011;36325;51.512;-0.382;2022-08-11T12:32:31;4.72;;;2.50;;
30036;SDS011;36325;51.512;-0.382;2022-08-11T12:35:01;4.82;;;2.50;;
30036;SDS011;36325;51.512;-0.382;2022-08-11T12:37:39;3.05;;;2.45;;
30036;SDS011;36325;51.512;-0.382;2022-08-11T12:40:13;6.70;;;2.85;;
30036;SDS011;36325;51.512;-0.382;2022-08-11T12:43:23;6.22;;;2.58;;
30036;SDS011;36325;51.512;-0.382;2022-08-11T12:46:24;8.93;;;3.17;;
30036;SDS011;36325;51.512;-0.382;2022-08-11T12:48:57;7.55;;;2.47;;
30036;SDS011;36325;51.512;-0.382;2022-08-11T12:51:48;8.73;;;2.42;;
30036;SDS011;36325;51.512;-0.382;2022-08-11T12:57:02;7.85;;;2.47;;
30036;SDS011;36325;51.512;-0.382;2022-08-11T13:00:04;5.32;;;2.28;;
30036;SDS011;36325;51.512;-0.382;2022-08-11T13:02:50;6.90;;;2.30;;
30036;SDS011;36325;51.512;-0.382;2022-08-11T13:05:38;4.80;;;2.20;;
30036;SDS011;36325;51.512;-0.382;2022-08-11T13:08:10;4.63;;;2.35;;
30036;SDS011;36325;51.512;-0.382;2022-08-11T13:10:42;3.00;;;2.30;;
30036;SDS011;36325;51.512;-0.382;2022-08-11T13:13:29;4.70;;;2.35;;
30036;SDS011;36325;51.512;-0.382;2022-08-11T13:16:17;5.47;;;2.35;;
30036;SDS011;36325;51.512;-0.382;2022-08-11T13:18:46;3.05;;;1.95;;
30036;SDS011;36325;51.512;-0.382;2022-08-11T13:21:15;2.78;;;2.20;;
30036;SDS011;36325;51.512;-0.382;2022-08-11T13:23:45;3.50;;;2.25;;
30036;SDS011;36325;51.512;-0.382;2022-08-11T13:26:25;2.27;;;2.07;;
30036;SDS011;36325;51.512;-0.382;2022-08-11T13:29:02;4.22;;;2.47;;
30036;SDS011;36325;51.512;-0.382;2022-08-11T13:31:31;9.43;;;2.20;;
30036;SDS011;36325;51.512;-0.382;2022-08-11T13:33:59;3.47;;;2.05;;
30036;SDS011;36325;51.512;-0.382;2022-08-11T13:36:28;3.17;;;2.13;;
30036;SDS011;36325;51.512;-0.382;2022-08-11T13:38:56;3.83;;;2.13;;
30036;SDS011;36325;51.512;-0.382;2022-08-11T13:41:25;7.93;;;2.28;;
30036;SDS011;36325;51.512;-0.382;2022-08-11T13:44:07;3.40;;;2.08;;
30036;SDS011;36325;51.512;-0.382;2022-08-11T13:46:38;5.47;;;2.13;;
30036;SDS011;36325;51.512;-0.382;2022-08-11T13:49:06;4.90;;;2.47;;
30036;SDS011;36325;51.512;-0.382;2022-08-11T13:51:35;7.40;;;2.20;;
30036;SDS011;36325;51.512;-0.382;2022-08-11T13:54:09;4.40;;;2.08;;
30036;SDS011;36325;51.512;-0.382;2022-08-11T13:56:41;3.55;;;2.17;;
30036;SDS011;36325;51.512;-0.382;2022-08-11T13:59:11;3.65;;;2.13;;
30036;SDS011;36325;51.512;-0.382;2022-08-11T14:01:43;5.05;;;2.17;;
30036;SDS011;36325;51.512;-0.382;2022-08-11T14:04:31;3.78;;;2.33;;
30036;SDS011;36325;51.512;-0.382;2022-08-11T14:07:08;2.60;;;2.10;;
30036;SDS011;36325;51.512;-0.382;2022-08-11T14:09:41;3.35;;;2.45;;
30036;SDS011;36325;51.512;-0.382;2022-08-11T14:12:13;7.18;;;2.05;;
30036;SDS011;36325;51.512;-0.382;2022-08-11T14:15:06;8.75;;;2.40;;
30036;SDS011;36325;51.512;-0.382;2022-08-11T14:17:38;2.22;;;2.03;;
30036;SDS011;36325;51.512;-0.382;2022-08-11T14:20:12;3.65;;;2.05;;
30036;SDS011;36325;51.512;-0.382;2022-08-11T14:23:04;3.20;;;2.28;;
30036;SDS011;36325;51.512;-0.382;2022-08-11T14:25:32;4.72;;;2.10;;
30036;SDS011;36325;51.512;-0.382;2022-08-11T14:28:19;5.28;;;1.83;;
30036;SDS011;36325;51.512;-0.382;2022-08-11T14:30:58;3.72;;;2.20;;
30036;SDS011;36325;51.512;-0.382;2022-08-11T14:33:27;3.38;;;2.05;;
30036;SDS011;36325;51.512;-0.382;2022-08-11T14:36:18;5.78;;;2.40;;
30036;SDS011;36325;51.512;-0.382;2022-08-11T14:38:48;4.55;;;2.00;;
30036;SDS011;36325;51.512;-0.382;2022-08-11T14:41:16;5.07;;;2.60;;
30036;SDS011;36325;51.512;-0.382;2022-08-11T14:44:03;9.10;;;3.00;;
30036;SDS011;36325;51.512;-0.382;2022-08-11T14:46:50;6.10;;;3.42;;
30036;SDS011;36325;51.512;-0.382;2022-08-11T14:49:48;4.45;;;3.13;;
30036;SDS011;36325;51.512;-0.382;2022-08-11T14:52:22;4.75;;;2.78;;
30036;SDS011;36325;51.512;-0.382;2022-08-11T14:54:51;5.57;;;3.65;;
30036;SDS011;36325;51.512;-0.382;2022-08-11T14:57:39;5.20;;;3.38;;
30036;SDS011;36325;51.512;-0.382;2022-08-11T15:00:28;6.35;;;3.50;;
30036;SDS011;36325;51.512;-0.382;2022-08-11T15:02:56;7.07;;;3.45;;
30036;SDS011;36325;51.512;-0.382;2022-08-11T15:05:49;8.60;;;3.65;;
30036;SDS011;36325;51.512;-0.382;2022-08-11T15:08:19;5.55;;;2.67;;
30036;SDS011;36325;51.512;-0.382;2022-08-11T15:11:12;5.80;;;3.05;;
30036;SDS011;36325;51.512;-0.382;2022-08-11T15:14:01;6.70;;;2.80;;
30036;SDS011;36325;51.512;-0.382;2022-08-11T15:16:30;6.43;;;2.73;;
30036;SDS011;36325;51.512;-0.382;2022-08-11T15:19:17;4.93;;;2.58;;
30036;SDS011;36325;51.512;-0.382;2022-08-11T15:21:47;4.60;;;2.53;;
30036;SDS011;36325;51.512;-0.382;2022-08-11T15:24:51;5.32;;;2.88;;
30036;SDS011;36325;51.512;-0.382;2022-08-11T15:27:18;11.98;;;3.13;;
30036;SDS011;36325;51.512;-0.382;2022-08-11T15:30:11;8.48;;;2.75;;
30036;SDS011;36325;51.512;-0.382;2022-08-11T15:33:03;4.65;;;2.40;;
30036;SDS011;36325;51.512;-0.382;2022-08-11T15:35:52;5.55;;;2.53;;
30036;SDS011;36325;51.512;-0.382;2022-08-11T15:39:44;7.03;;;3.45;;
30036;SDS011;36325;51.512;-0.382;2022-08-11T15:41:50;6.13;;;2.70;;
30036;SDS011;36325;51.512;-0.382;2022-08-11T15:44:42;16.98;;;5.22;;
30036;SDS011;36325;51.512;-0.382;2022-08-11T15:47:36;15.95;;;9.43;;
30036;SDS011;36325;51.512;-0.382;2022-08-11T15:50:10;17.92;;;13.18;;
30036;SDS011;36325;51.512;-0.382;2022-08-11T15:52:59;11.15;;;8.73;;
30036;SDS011;36325;51.512;-0.382;2022-08-11T15:55:29;27.00;;;14.98;;
30036;SDS011;36325;51.512;-0.382;2022-08-11T15:58:01;12.57;;;5.80;;
30036;SDS011;36325;51.512;-0.382;2022-08-11T16:00:51;7.10;;;4.30;;
30036;SDS011;36325;51.512;-0.382;2022-08-11T16:03:44;9.70;;;4.78;;
30036;SDS011;36325;51.512;-0.382;2022-08-11T16:06:38;14.48;;;10.80;;
30036;SDS011;36325;51.512;-0.382;2022-08-11T16:09:13;31.70;;;18.30;;
30036;SDS011;36325;51.512;-0.382;2022-08-11T16:11:45;26.75;;;10.27;;
30036;SDS011;36325;51.512;-0.382;2022-08-11T16:14:14;9.77;;;7.07;;
30036;SDS011;36325;51.512;-0.382;2022-08-11T16:17:01;20.30;;;2.88;;
30036;SDS011;36325;51.512;-0.382;2022-08-11T16:19:32;6.63;;;2.97;;
30036;SDS011;36325;51.512;-0.382;2022-08-11T16:22:03;5.05;;;2.83;;
30036;SDS011;36325;51.512;-0.382;2022-08-11T16:24:37;7.93;;;2.40;;
30036;SDS011;36325;51.512;-0.382;2022-08-11T16:27:31;8.05;;;2.88;;
30036;SDS011;36325;51.512;-0.382;2022-08-11T16:30:02;5.00;;;2.78;;
30036;SDS011;36325;51.512;-0.382;2022-08-11T16:32:31;7.35;;;3.20;;
30036;SDS011;36325;51.512;-0.382;2022-08-11T16:35:08;11.15;;;3.10;;
30036;SDS011;36325;51.512;-0.382;2022-08-11T16:37:56;8.07;;;4.20;;
30036;SDS011;36325;51.512;-0.382;2022-08-11T16:40:43;8.38;;;3.90;;
30036;SDS011;36325;51.512;-0.382;2022-08-11T16:43:15;13.77;;;6.28;;
30036;SDS011;36325;51.512;-0.382;2022-08-11T16:46:04;6.65;;;3.75;;
30036;SDS011;36325;51.512;-0.382;2022-08-11T16:48:52;6.30;;;3.75;;
30036;SDS011;36325;51.512;-0.382;2022-08-11T16:51:20;13.95;;;2.72;;
30036;SDS011;36325;51.512;-0.382;2022-08-11T16:53:48;4.50;;;2.28;;
30036;SDS011;36325;51.512;-0.382;2022-08-11T16:56:31;3.83;;;2.33;;
30036;SDS011;36325;51.512;-0.382;2022-08-11T16:59:04;4.95;;;2.70;;
30036;SDS011;36325;51.512;-0.382;2022-08-11T17:01:45;8.48;;;2.95;;
30036;SDS011;36325;51.512;-0.382;2022-08-11T17:07:12;3.78;;;2.47;;
30036;SDS011;36325;51.512;-0.382;2022-08-11T17:10:10;7.82;;;3.05;;
30036;SDS011;36325;51.512;-0.382;2022-08-11T17:13:28;10.80;;;2.60;;
30036;SDS011;36325;51.512;-0.382;2022-08-11T17:16:01;5.97;;;2.20;;
30036;SDS011;36325;51.512;-0.382;2022-08-11T17:18:44;5.40;;;2.47;;
30036;SDS011;36325;51.512;-0.382;2022-08-11T17:21:37;10.02;;;2.40;;
30036;SDS011;36325;51.512;-0.382;2022-08-11T17:24:30;6.57;;;2.60;;
30036;SDS011;36325;51.512;-0.382;2022-08-11T17:32:42;8.77;;;2.47;;
30036;SDS011;36325;51.512;-0.382;2022-08-11T17:35:29;9.88;;;2.55;;
30036;SDS011;36325;51.512;-0.382;2022-08-11T17:38:09;7.25;;;2.90;;
30036;SDS011;36325;51.512;-0.382;2022-08-11T17:40:44;6.15;;;2.60;;
30036;SDS011;36325;51.512;-0.382;2022-08-11T17:43:35;5.25;;;2.65;;
30036;SDS011;36325;51.512;-0.382;2022-08-11T17:46:22;15.85;;;2.30;;
30036;SDS011;36325;51.512;-0.382;2022-08-11T17:49:10;3.63;;;2.75;;
30036;SDS011;36325;51.512;-0.382;2022-08-11T17:51:39;8.80;;;3.10;;
30036;SDS011;36325;51.512;-0.382;2022-08-11T17:54:29;6.53;;;2.95;;
30036;SDS011;36325;51.512;-0.382;2022-08-11T17:57:17;7.78;;;2.65;;
30036;SDS011;36325;51.512;-0.382;2022-08-11T18:00:04;4.43;;;2.78;;
30036;SDS011;36325;51.512;-0.382;2022-08-11T18:02:39;5.65;;;2.75;;
30036;SDS011;36325;51.512;-0.382;2022-08-11T18:05:29;4.90;;;2.75;;
30036;SDS011;36325;51.512;-0.382;2022-08-11T18:08:00;7.10;;;3.30;;
30036;SDS011;36325;51.512;-0.382;2022-08-11T18:10:49;9.57;;;3.15;;
30036;SDS011;36325;51.512;-0.382;2022-08-11T18:13:37;3.70;;;2.85;;
30036;SDS011;36325;51.512;-0.382;2022-08-11T18:16:26;8.73;;;2.83;;
30036;SDS011;36325;51.512;-0.382;2022-08-11T18:19:13;4.05;;;2.85;;
30036;SDS011;36325;51.512;-0.382;2022-08-11T18:22:09;6.45;;;3.10;;
30036;SDS011;36325;51.512;-0.382;2022-08-11T18:25:12;4.20;;;2.70;;
30036;SDS011;36325;51.512;-0.382;2022-08-11T18:27:59;4.05;;;2.28;;
30036;SDS011;36325;51.512;-0.382;2022-08-11T18:30:49;4.25;;;2.78;;
30036;SDS011;36325;51.512;-0.382;2022-08-11T18:33:40;8.38;;;2.40;;
30036;SDS011;36325;51.512;-0.382;2022-08-11T18:36:48;4.85;;;2.58;;
30036;SDS011;36325;51.512;-0.382;2022-08-11T18:39:46;3.60;;;2.38;;
30036;SDS011;36325;51.512;-0.382;2022-08-11T18:42:38;12.25;;;3.05;;
30036;SDS011;36325;51.512;-0.382;2022-08-11T18:45:26;6.18;;;2.70;;
30036;SDS011;36325;51.512;-0.382;2022-08-11T18:48:16;10.07;;;3.25;;
30036;SDS011;36325;51.512;-0.382;2022-08-11T18:51:07;3.95;;;2.75;;
30036;SDS011;36325;51.512;-0.382;2022-08-11T18:54:03;5.57;;;2.65;;
30036;SDS011;36325;51.512;-0.382;2022-08-11T18:56:52;6.82;;;2.53;;
30036;SDS011;36325;51.512;-0.382;2022-08-11T18:59:40;11.18;;;3.08;;
30036;SDS011;36325;51.512;-0.382;2022-08-11T19:02:28;9.27;;;2.83;;
30036;SDS011;36325;51.512;-0.382;2022-08-11T19:05:17;8.05;;;2.60;;
30036;SDS011;36325;51.512;-0.382;2022-08-11T19:08:25;5.57;;;2.50;;
30036;SDS011;36325;51.512;-0.382;2022-08-11T19:11:21;8.43;;;2.65;;
30036;SDS011;36325;51.512;-0.382;2022-08-11T19:14:09;6.57;;;2.80;;
30036;SDS011;36325;51.512;-0.382;2022-08-11T19:17:00;5.38;;;2.42;;
30036;SDS011;36325;51.512;-0.382;2022-08-11T19:20:16;7.57;;;2.60;;
30036;SDS011;36325;51.512;-0.382;2022-08-11T19:23:04;10.77;;;2.70;;
30036;SDS011;36325;51.512;-0.382;2022-08-11T19:25:52;5.80;;;2.88;;
30036;SDS011;36325;51.512;-0.382;2022-08-11T19:28:39;5.80;;;2.95;;
30036;SDS011;36325;51.512;-0.382;2022-08-11T19:31:27;7.97;;;2.95;;
30036;SDS011;36325;51.512;-0.382;2022-08-11T19:34:15;15.02;;;2.75;;
30036;SDS011;36325;51.512;-0.382;2022-08-11T19:37:04;6.93;;;2.75;;
30036;SDS011;36325;51.512;-0.382;2022-08-11T19:39:53;4.93;;;2.95;;
30036;SDS011;36325;51.512;-0.382;2022-08-11T19:42:43;5.60;;;2.50;;
30036;SDS011;36325;51.512;-0.382;2022-08-11T19:45:36;8.27;;;2.80;;